createdAt,value
2019-03-19T00:03:08.408Z,19.23
2019-03-19T00:07:11.955Z,28.67
2019-03-19T00:11:15.497Z,25.43
2019-03-19T00:15:19.090Z,20.40
2019-03-19T00:19:22.707Z,22.35
2019-03-19T00:23:30.665Z,21.27
2019-03-19T00:27:34.654Z,16.80
2019-03-19T00:31:38.247Z,15.20
2019-03-19T00:35:41.873Z,19.43
2019-03-19T00:39:47.186Z,14.13
2019-03-19T00:43:51.054Z,21.23
2019-03-19T00:47:55.569Z,13.97
2019-03-19T00:51:59.236Z,23.62
2019-03-19T00:56:03.937Z,15.48
2019-03-19T01:00:18.451Z,18.12
2019-03-19T01:04:21.944Z,18.90
2019-03-19T01:08:25.515Z,18.05
2019-03-19T01:12:29.179Z,19.65
2019-03-19T01:16:32.746Z,23.12
2019-03-19T01:20:43.174Z,24.45
2019-03-19T01:24:46.766Z,22.85
2019-03-19T01:28:50.338Z,21.68
2019-03-19T01:32:55.487Z,17.98
2019-03-19T01:36:59.171Z,17.07
2019-03-19T01:41:02.807Z,17.23
2019-03-19T01:45:09.447Z,21.95
2019-03-19T01:49:13.011Z,17.00
2019-03-19T01:53:16.545Z,17.60
2019-03-19T01:57:20.116Z,21.73
2019-03-19T02:01:23.609Z,16.53
2019-03-19T02:05:29.049Z,24.10
2019-03-19T02:09:32.333Z,16.42
2019-03-19T02:13:35.887Z,13.43
2019-03-19T02:17:41.181Z,28.10
2019-03-19T02:21:44.635Z,18.48
2019-03-19T02:25:54.422Z,13.15
2019-03-19T02:29:58.035Z,14.65
2019-03-19T02:34:01.535Z,24.67
2019-03-19T02:38:05.198Z,19.67
2019-03-19T02:42:08.738Z,18.20
2019-03-19T02:46:12.339Z,23.87
2019-03-19T02:50:19.989Z,18.80
2019-03-19T02:54:23.643Z,20.07
2019-03-19T02:58:27.378Z,13.55
2019-03-19T03:02:32.771Z,19.17
2019-03-19T03:06:36.386Z,21.30
2019-03-19T03:10:39.906Z,26.17
2019-03-19T03:14:46.150Z,20.55
2019-03-19T03:18:48.698Z,17.77
2019-03-19T03:22:52.821Z,13.60
2019-03-19T03:26:56.395Z,22.90
2019-03-19T03:31:00.969Z,14.30
2019-03-19T03:35:05.422Z,18.87
2019-03-19T03:39:09.023Z,17.67
2019-03-19T03:43:12.745Z,18.63
2019-03-19T03:47:16.248Z,15.30
2019-03-19T03:51:19.853Z,16.63
2019-03-19T03:55:23.353Z,20.43
2019-03-19T03:59:27.058Z,20.53
2019-03-19T04:03:30.552Z,11.10
2019-03-19T04:07:36.793Z,15.00
2019-03-19T04:11:43.502Z,17.77
2019-03-19T04:15:47.452Z,13.30
2019-03-19T04:19:51.044Z,21.07
2019-03-19T04:23:55.578Z,20.27
2019-03-19T04:27:59.143Z,19.87
2019-03-19T04:32:04.528Z,29.70
2019-03-19T04:36:08.127Z,26.23
2019-03-19T04:40:13.147Z,25.80
2019-03-19T04:44:18.449Z,26.17
2019-03-19T04:48:28.832Z,26.67
2019-03-19T04:52:32.434Z,22.70
2019-03-19T04:56:36.040Z,28.80
2019-03-19T05:00:39.597Z,30.27
2019-03-19T05:04:43.146Z,29.57
2019-03-19T05:08:46.757Z,26.93
2019-03-19T05:12:50.226Z,29.87
2019-03-19T05:16:53.723Z,29.87
2019-03-19T05:20:57.247Z,25.77
2019-03-19T05:25:08.702Z,23.47
2019-03-19T05:29:12.433Z,26.40
2019-03-19T05:33:16.050Z,31.47
2019-03-19T05:37:25.396Z,28.60
2019-03-19T05:41:30.747Z,25.57
2019-03-19T05:45:34.253Z,31.33
2019-03-19T05:49:37.730Z,20.70
2019-03-19T05:53:41.284Z,23.87
2019-03-19T05:57:49.912Z,26.20
2019-03-19T06:01:53.259Z,20.00
2019-03-19T06:05:56.767Z,26.90
2019-03-19T06:10:00.399Z,20.30
2019-03-19T06:14:03.910Z,20.55
2019-03-19T06:18:07.670Z,21.62
2019-03-19T06:22:13.760Z,19.20
2019-03-19T06:26:19.324Z,21.57
2019-03-19T06:30:24.368Z,23.77
2019-03-19T06:34:28.042Z,31.02
2019-03-19T06:38:31.631Z,28.32
2019-03-19T06:42:35.279Z,23.70
2019-03-19T06:46:38.853Z,17.95
2019-03-19T06:50:45.504Z,22.13
2019-03-19T06:54:49.282Z,23.85
2019-03-19T06:58:52.798Z,17.23
2019-03-19T07:02:56.307Z,26.15
2019-03-19T07:06:59.818Z,22.35
2019-03-19T07:11:09.092Z,17.17
2019-03-19T07:15:20.267Z,18.42
2019-03-19T07:19:23.843Z,19.37
2019-03-19T07:23:28.329Z,14.45
2019-03-19T07:27:39.054Z,24.00
2019-03-19T07:31:44.219Z,20.08
2019-03-19T07:35:51.908Z,29.35
2019-03-19T07:39:53.067Z,13.47
2019-03-19T07:43:58.227Z,21.37
2019-03-19T07:48:03.531Z,18.05
2019-03-19T07:52:07.027Z,19.00
2019-03-19T07:56:14.778Z,14.35
2019-03-19T08:00:19.178Z,20.12
2019-03-19T08:04:22.759Z,17.98
2019-03-19T08:08:26.394Z,16.57
2019-03-19T08:12:33.447Z,9.65
2019-03-19T08:16:36.203Z,7.58
2019-03-19T08:20:39.873Z,16.17
2019-03-19T08:24:43.541Z,14.18
2019-03-19T08:28:55.092Z,18.45
2019-03-19T08:32:56.318Z,19.30
2019-03-19T08:36:59.984Z,16.30
2019-03-19T08:41:05.615Z,10.55
2019-03-19T08:45:12.249Z,9.93
2019-03-19T08:49:23.855Z,12.45
2019-03-19T09:02:36.496Z,11.00
2019-03-19T09:07:34.914Z,16.20
2019-03-19T09:11:03.670Z,11.68
2019-03-19T09:15:10.413Z,12.00
2019-03-19T09:19:13.979Z,8.20
2019-03-19T09:23:27.158Z,10.75
2019-03-19T09:27:28.281Z,13.27
2019-03-19T09:31:36.891Z,12.53
2019-03-19T09:35:40.494Z,14.25
2019-03-19T09:39:44.066Z,13.68
2019-03-19T09:43:49.160Z,9.55
2019-03-19T09:47:52.788Z,14.97
2019-03-19T09:51:56.368Z,12.43
2019-03-19T09:55:59.900Z,10.17
2019-03-19T10:00:05.188Z,11.45
2019-03-19T10:04:15.745Z,8.43
2019-03-19T10:08:25.227Z,15.00
2019-03-19T10:12:28.779Z,12.03
2019-03-19T10:16:32.278Z,12.45
2019-03-19T10:20:35.955Z,10.38
2019-03-19T10:24:41.093Z,15.25
2019-03-19T10:28:44.676Z,7.80
2019-03-19T10:32:48.227Z,9.00
2019-03-19T10:36:51.911Z,8.10
2019-03-19T10:41:01.122Z,7.78
2019-03-19T10:45:16.493Z,7.37
2019-03-19T10:49:19.997Z,9.58
2019-03-19T10:53:25.117Z,28.80
2019-03-19T10:57:29.808Z,12.68
2019-03-19T11:01:33.760Z,15.78
2019-03-19T11:05:40.378Z,6.45
2019-03-19T11:09:49.807Z,4.65
2019-03-19T11:13:53.383Z,8.70
2019-03-19T11:18:00.376Z,6.65
2019-03-19T11:22:03.915Z,7.92
2019-03-19T11:26:07.432Z,17.27
2019-03-19T11:30:25.049Z,12.93
2019-03-19T11:34:28.638Z,10.55
2019-03-19T11:38:32.198Z,16.10
2019-03-19T11:42:35.725Z,8.88
2019-03-19T11:46:39.241Z,12.63
2019-03-19T11:50:42.795Z,10.25
2019-03-19T11:54:47.198Z,16.80
2019-03-19T11:58:50.755Z,9.78
2019-03-19T12:02:54.324Z,14.13
2019-03-19T12:07:04.110Z,14.28
2019-03-19T12:11:07.671Z,14.73
2019-03-19T12:15:24.607Z,13.93
2019-03-19T12:19:33.446Z,9.35
2019-03-19T12:23:38.610Z,12.12
2019-03-19T12:27:42.281Z,6.25
2019-03-19T12:31:45.818Z,8.50
2019-03-19T12:35:53.817Z,7.67
2019-03-19T12:40:03.554Z,9.10
2019-03-19T12:44:07.143Z,15.28
2019-03-19T12:48:11.004Z,11.73
2019-03-19T12:52:14.650Z,13.85
2019-03-19T12:56:18.352Z,14.58
2019-03-19T13:00:55.473Z,7.62
2019-03-19T13:04:32.180Z,8.27
2019-03-19T13:08:35.748Z,7.03
2019-03-19T13:12:41.350Z,7.47
2019-03-19T13:16:47.543Z,10.43
2019-03-19T13:20:53.467Z,13.25
2019-03-19T13:24:56.728Z,13.08
2019-03-19T13:29:03.135Z,8.78
2019-03-19T13:33:08.487Z,11.57
2019-03-19T13:37:12.087Z,11.97
2019-03-19T13:41:18.830Z,7.22
2019-03-19T13:45:28.581Z,15.00
2019-03-19T13:49:44.143Z,4.62
2019-03-19T13:53:49.899Z,12.40
2019-03-19T13:57:53.746Z,10.48
2019-03-19T14:01:57.373Z,8.93
2019-03-19T14:06:01.299Z,9.63
2019-03-19T14:10:07.995Z,9.80
2019-03-19T14:14:12.435Z,12.08
2019-03-19T14:18:15.981Z,3.37
2019-03-19T14:22:20.463Z,13.70
2019-03-19T14:26:24.137Z,8.60
2019-03-19T14:30:27.840Z,10.37
2019-03-19T14:34:34.178Z,10.10
2019-03-19T14:38:46.746Z,10.10
2019-03-19T14:42:45.209Z,11.50
2019-03-19T14:46:50.643Z,10.43
2019-03-19T14:50:54.209Z,9.48
2019-03-19T14:54:57.757Z,13.22
2019-03-19T14:59:01.309Z,6.20
2019-03-19T15:03:04.898Z,15.63
2019-03-19T15:07:10.917Z,10.70
2019-03-19T15:11:14.475Z,13.15
2019-03-19T15:15:18.745Z,12.68
2019-03-19T15:19:22.222Z,6.53
2019-03-19T15:23:25.783Z,13.40
2019-03-19T15:27:31.198Z,7.17
2019-03-19T15:31:34.799Z,8.50
2019-03-19T15:35:38.334Z,9.23
2019-03-19T15:39:41.930Z,8.88
2019-03-19T15:43:45.567Z,6.87
2019-03-19T15:47:49.052Z,10.05
2019-03-19T15:51:54.374Z,8.13
2019-03-19T15:55:57.888Z,11.45
2019-03-19T16:00:01.413Z,9.13
2019-03-19T16:04:04.970Z,10.18
2019-03-19T16:08:08.533Z,6.97
2019-03-19T16:12:12.055Z,12.30
2019-03-19T16:16:17.281Z,9.53
2019-03-19T16:20:21.692Z,9.43
2019-03-19T16:24:27.718Z,11.00
2019-03-19T16:28:31.239Z,7.05
2019-03-19T16:32:34.689Z,10.40
2019-03-19T16:36:39.954Z,4.83
2019-03-19T16:40:43.489Z,10.80
2019-03-19T16:44:47.045Z,6.60
2019-03-19T16:48:50.642Z,7.85
2019-03-19T16:52:54.243Z,9.63
2019-03-19T16:56:57.848Z,13.00
2019-03-19T17:01:01.323Z,8.80
2019-03-19T17:05:07.946Z,7.72
2019-03-19T17:09:11.573Z,13.03
2019-03-19T17:13:15.155Z,9.70
2019-03-19T17:17:18.791Z,13.30
2019-03-19T17:21:22.286Z,6.25
2019-03-19T17:25:26.625Z,9.38
2019-03-19T17:29:31.311Z,9.08
2019-03-19T17:33:34.890Z,8.98
2019-03-19T17:37:38.694Z,4.67
2019-03-19T17:41:44.160Z,5.87
2019-03-19T17:45:47.703Z,13.05
2019-03-19T17:49:51.321Z,18.40
2019-03-19T17:53:59.917Z,9.05
2019-03-19T17:58:03.445Z,7.95
2019-03-19T18:02:11.736Z,14.50
2019-03-19T18:06:15.436Z,6.85
2019-03-19T18:10:22.430Z,6.50
2019-03-19T18:14:28.427Z,11.33
2019-03-19T18:18:32.064Z,11.27
2019-03-19T18:22:37.334Z,13.05
2019-03-19T18:26:42.142Z,10.38
2019-03-19T18:30:46.031Z,6.87
2019-03-19T18:34:50.416Z,11.45
2019-03-19T18:38:55.642Z,15.13
2019-03-19T18:42:59.633Z,8.03
2019-03-19T18:47:03.553Z,8.93
2019-03-19T18:51:07.405Z,8.53
2019-03-19T18:55:11.727Z,4.55
2019-03-19T18:59:15.598Z,8.05
2019-03-19T19:03:19.607Z,7.15
2019-03-19T19:07:23.316Z,5.78
2019-03-19T19:11:26.899Z,6.00
2019-03-19T19:15:30.617Z,11.63
2019-03-19T19:19:34.339Z,21.10
2019-03-19T19:23:40.862Z,10.20
2019-03-19T19:27:45.652Z,6.58
2019-03-19T19:31:49.403Z,6.03
2019-03-19T19:35:53.020Z,8.60
2019-03-19T19:39:57.660Z,11.53
2019-03-19T19:44:01.241Z,12.37
2019-03-19T19:48:04.929Z,6.42
2019-03-19T19:52:08.571Z,8.80
2019-03-19T19:56:12.407Z,13.10
2019-03-19T20:00:22.463Z,16.73
2019-03-19T20:04:26.069Z,2.05
2019-03-19T20:08:29.679Z,4.86
2019-03-19T20:12:33.293Z,5.55
2019-03-19T20:16:36.862Z,6.95
2019-03-19T20:20:40.418Z,4.95
2019-03-19T20:24:44.029Z,9.40
2019-03-19T20:28:47.647Z,4.18
2019-03-19T20:32:51.257Z,8.08
2019-03-19T20:36:55.198Z,3.27
2019-03-19T20:40:59.002Z,9.48
2019-03-19T20:45:02.633Z,4.87
2019-03-19T20:49:06.180Z,4.58
2019-03-19T20:53:12.710Z,7.17
2019-03-19T20:57:16.319Z,7.00
2019-03-19T21:01:20.138Z,5.87
2019-03-19T21:05:23.854Z,9.00
2019-03-19T21:09:27.569Z,6.78
2019-03-19T21:13:31.184Z,6.67
2019-03-19T21:17:34.803Z,6.37
2019-03-19T21:21:38.411Z,5.50
2019-03-19T21:25:42.023Z,6.07
2019-03-19T21:29:45.539Z,8.37
2019-03-19T21:33:51.440Z,4.43
2019-03-19T21:37:54.613Z,8.40
2019-03-19T21:41:58.226Z,4.73
2019-03-19T21:46:01.798Z,7.53
2019-03-19T21:50:08.535Z,7.53
2019-03-19T21:54:12.141Z,3.50
2019-03-19T21:58:16.066Z,7.27
2019-03-19T22:02:19.589Z,7.67
2019-03-19T22:06:23.293Z,3.60
2019-03-19T22:10:26.825Z,5.00
2019-03-19T22:14:30.418Z,7.10
2019-03-19T22:18:34.028Z,5.67
2019-03-19T22:22:37.747Z,4.43
2019-03-19T22:26:41.354Z,6.90
2019-03-19T22:30:44.969Z,7.50
2019-03-19T22:34:48.693Z,9.47
2019-03-19T22:38:52.303Z,9.80
2019-03-19T22:42:55.918Z,6.97
2019-03-19T22:46:59.533Z,9.07
2019-03-19T22:51:03.139Z,11.93
2019-03-19T22:55:09.417Z,3.97
2019-03-19T22:59:13.137Z,4.70
2019-03-19T23:03:16.858Z,2.80
2019-03-19T23:07:20.568Z,6.93
2019-03-19T23:11:24.382Z,5.90
2019-03-19T23:15:28.005Z,4.13
2019-03-19T23:19:31.613Z,10.77
2019-03-19T23:23:35.224Z,11.37
2019-03-19T23:27:38.945Z,12.03
2019-03-19T23:31:42.558Z,10.43
2019-03-19T23:35:46.272Z,4.50
2019-03-19T23:39:51.014Z,11.37
2019-03-19T23:43:54.866Z,8.60
2019-03-19T23:47:58.446Z,6.67
2019-03-19T23:52:02.063Z,9.80
2019-03-19T23:56:05.672Z,6.30
